Time,TemperatureF,DewpointF,PressureIn,WindDirection,WindDirectionDegrees,WindSpeedMPH,WindSpeedGustMPH,Humidity,HourlyPrecipIn,Conditions,Clouds,dailyrainin,SoftwareType,DateUTC
2013-02-01 00:01:00,16.9,8.5,29.90,West,270,10.0,18.0,69,0.00,,,-99.99,WeatherLink 5.7,2013-02-01 05:01:00,
2013-02-01 00:11:00,16.7,8.3,29.91,West,270,10.0,17.0,69,0.00,,,-99.99,WeatherLink 5.7,2013-02-01 05:11:00,
2013-02-01 00:21:00,16.6,8.2,29.91,West,270,10.0,17.0,69,0.00,,,-99.99,WeatherLink 5.7,2013-02-01 05:21:00,
2013-02-01 00:31:00,16.6,8.2,29.91,West,270,12.0,22.0,69,0.00,,,-99.99,WeatherLink 5.7,2013-02-01 05:31:00,
2013-02-01 00:41:00,16.5,7.8,29.91,WNW,292,11.0,18.0,68,0.00,,,-99.99,WeatherLink 5.7,2013-02-01 05:41:00,
2013-02-01 00:51:00,16.4,7.7,29.92,WNW,292,12.0,19.0,68,0.00,,,-99.99,WeatherLink 5.7,2013-02-01 05:51:00,
2013-02-01 01:01:00,16.4,7.7,29.92,WNW,292,11.0,22.0,68,0.00,,,-99.99,WeatherLink 5.7,2013-02-01 06:01:00,
2013-02-01 01:11:00,16.3,7.9,29.93,West,270,12.0,21.0,69,0.00,,,-99.99,WeatherLink 5.7,2013-02-01 06:11:00,
2013-02-01 01:21:00,16.2,8.1,29.93,West,270,11.0,19.0,70,0.00,,,-99.99,WeatherLink 5.7,2013-02-01 06:21:00,
2013-02-01 01:31:00,16.0,7.9,29.93,West,270,12.0,21.0,70,0.00,,,-99.99,WeatherLink 5.7,2013-02-01 06:31:00,
2013-02-01 01:41:00,16.1,8.3,29.94,West,270,11.0,21.0,71,0.00,,,-99.99,WeatherLink 5.7,2013-02-01 06:41:00,
2013-02-01 01:51:00,16.2,8.8,29.94,West,270,10.0,19.0,72,0.00,,,-99.99,WeatherLink 5.7,2013-02-01 06:51:00,
2013-02-01 02:01:00,16.4,9.3,29.95,West,270,10.0,18.0,73,0.00,,,-99.99,WeatherLink 5.7,2013-02-01 07:01:00,
2013-02-01 02:11:00,16.3,9.2,29.95,West,270,9.0,16.0,73,0.00,,,-99.99,WeatherLink 5.7,2013-02-01 07:11:00,
2013-02-01 02:21:00,16.2,9.4,29.95,West,270,7.0,13.0,74,0.00,,,-99.99,WeatherLink 5.7,2013-02-01 07:21:00,
2013-02-01 02:31:00,16.2,9.4,29.96,West,270,10.0,17.0,74,0.00,,,-99.99,WeatherLink 5.7,2013-02-01 07:31:00,
2013-02-01 02:41:00,16.1,9.0,29.97,West,270,10.0,17.0,73,0.00,,,-99.99,WeatherLink 5.7,2013-02-01 07:41:00,
2013-02-01 02:51:00,16.1,9.3,29.97,West,270,10.0,17.0,74,0.00,,,-99.99,WeatherLink 5.7,2013-02-01 07:51:00,
2013-02-01 03:01:00,16.0,9.2,29.97,West,270,12.0,18.0,74,0.00,,,-99.99,WeatherLink 5.7,2013-02-01 08:01:00,
2013-02-01 03:11:00,16.0,9.2,29.98,West,270,9.0,19.0,74,0.00,,,-99.99,WeatherLink 5.7,2013-02-01 08:11:00,
2013-02-01 03:21:00,16.0,9.2,29.98,West,270,10.0,16.0,74,0.00,,,-99.99,WeatherLink 5.7,2013-02-01 08:21:00,
2013-02-01 03:31:00,15.9,8.8,29.99,WNW,292,10.0,17.0,73,0.00,,,-99.99,WeatherLink 5.7,2013-02-01 08:31:00,
2013-02-01 03:41:00,16.0,8.9,29.99,West,270,10.0,21.0,73,0.00,,,-99.99,WeatherLink 5.7,2013-02-01 08:41:00,
2013-02-01 03:51:00,16.0,8.9,29.99,West,270,10.0,15.0,73,0.00,,,-99.99,WeatherLink 5.7,2013-02-01 08:51:00,
2013-02-01 04:01:00,16.1,9.0,30.00,West,270,10.0,17.0,73,0.00,,,-99.99,WeatherLink 5.7,2013-02-01 09:01:00,
2013-02-01 04:11:00,16.1,9.0,30.00,West,270,11.0,20.0,73,0.00,,,-99.99,WeatherLink 5.7,2013-02-01 09:11:00,
2013-02-01 04:21:00,16.1,8.7,30.01,West,270,13.0,21.0,72,0.00,,,-99.99,WeatherLink 5.7,2013-02-01 09:21:00,
2013-02-01 04:31:00,16.2,8.4,30.02,West,270,11.0,19.0,71,0.00,,,-99.99,WeatherLink 5.7,2013-02-01 09:31:00,
2013-02-01 04:41:00,16.4,8.6,30.01,West,270,12.0,18.0,71,0.00,,,-99.99,WeatherLink 5.7,2013-02-01 09:41:00,
2013-02-01 04:51:00,16.5,8.4,30.02,West,270,10.0,17.0,70,0.00,,,-99.99,WeatherLink 5.7,2013-02-01 09:51:00,
2013-02-01 05:01:00,16.5,8.7,30.03,West,270,11.0,17.0,71,0.00,,,-99.99,WeatherLink 5.7,2013-02-01 10:01:00,
2013-02-01 05:11:00,16.4,8.6,30.04,West,270,12.0,21.0,71,0.00,,,-99.99,WeatherLink 5.7,2013-02-01 10:11:00,
2013-02-01 05:21:00,16.2,8.8,30.04,West,270,9.0,14.0,72,0.00,,,-99.99,WeatherLink 5.7,2013-02-01 10:21:00,
2013-02-01 05:31:00,15.9,8.5,30.05,West,270,9.0,16.0,72,0.00,,,-99.99,WeatherLink 5.7,2013-02-01 10:31:00,
2013-02-01 05:41:00,15.3,7.9,30.05,West,270,10.0,18.0,72,0.00,,,-99.99,WeatherLink 5.7,2013-02-01 10:41:00,
2013-02-01 05:51:00,15.0,7.6,30.06,West,270,11.0,18.0,72,0.00,,,-99.99,WeatherLink 5.7,2013-02-01 10:51:00,
2013-02-01 06:01:00,14.9,7.5,30.07,West,270,9.0,19.0,72,0.00,,,-99.99,WeatherLink 5.7,2013-02-01 11:01:00,
2013-02-01 06:11:00,14.8,7.1,30.07,West,270,10.0,19.0,71,0.00,,,-99.99,WeatherLink 5.7,2013-02-01 11:11:00,
2013-02-01 06:21:00,14.8,7.1,30.08,West,270,9.0,18.0,71,0.00,,,-99.99,WeatherLink 5.7,2013-02-01 11:21:00,
2013-02-01 06:31:00,14.5,6.8,30.08,West,270,9.0,16.0,71,0.00,,,-99.99,WeatherLink 5.7,2013-02-01 11:31:00,
2013-02-01 06:41:00,14.2,6.5,30.09,WSW,247,8.0,14.0,71,0.00,,,-99.99,WeatherLink 5.7,2013-02-01 11:41:00,
2013-02-01 06:51:00,13.9,6.5,30.10,West,270,9.0,18.0,72,0.00,,,-99.99,WeatherLink 5.7,2013-02-01 11:51:00,
2013-02-01 07:01:00,13.9,6.5,30.10,West,270,11.0,18.0,72,0.00,,,-99.99,WeatherLink 5.7,2013-02-01 12:01:00,
2013-02-01 07:11:00,13.9,6.8,30.11,West,270,10.0,18.0,73,0.00,,,-99.99,WeatherLink 5.7,2013-02-01 12:11:00,
2013-02-01 07:21:00,14.0,6.9,30.11,West,270,10.0,18.0,73,0.00,,,-99.99,WeatherLink 5.7,2013-02-01 12:21:00,
2013-02-01 07:31:00,14.0,6.6,30.12,West,270,10.0,18.0,72,0.00,,,-99.99,WeatherLink 5.7,2013-02-01 12:31:00,
2013-02-01 07:41:00,14.1,6.4,30.12,West,270,9.0,20.0,71,0.00,,,-99.99,WeatherLink 5.7,2013-02-01 12:41:00,
2013-02-01 07:51:00,14.0,6.3,30.13,West,270,11.0,19.0,71,0.00,,,-99.99,WeatherLink 5.7,2013-02-01 12:51:00,
2013-02-01 08:01:00,13.9,6.2,30.14,West,270,12.0,20.0,71,0.00,,,-99.99,WeatherLink 5.7,2013-02-01 13:01:00,
2013-02-01 08:11:00,13.8,6.4,30.15,West,270,12.0,21.0,72,0.00,,,-99.99,WeatherLink 5.7,2013-02-01 13:11:00,
2013-02-01 08:21:00,13.8,7.0,30.15,West,270,12.0,20.0,74,0.00,,,-99.99,WeatherLink 5.7,2013-02-01 13:21:00,
2013-02-01 08:31:00,13.7,7.2,30.15,West,270,11.0,18.0,75,0.00,,,-99.99,WeatherLink 5.7,2013-02-01 13:31:00,
2013-02-01 08:41:00,13.8,7.3,30.16,West,270,11.0,22.0,75,0.00,,,-99.99,WeatherLink 5.7,2013-02-01 13:41:00,
2013-02-01 08:51:00,13.7,6.9,30.16,West,270,10.0,17.0,74,0.00,,,-99.99,WeatherLink 5.7,2013-02-01 13:51:00,
2013-02-01 09:01:00,13.8,7.0,30.17,West,270,10.0,17.0,74,0.00,,,-99.99,WeatherLink 5.7,2013-02-01 14:01:00,
2013-02-01 09:11:00,14.2,7.1,30.17,West,270,10.0,16.0,73,0.00,,,-99.99,WeatherLink 5.7,2013-02-01 14:11:00,
2013-02-01 09:21:00,14.7,7.0,30.17,West,270,9.0,24.0,71,0.00,,,-99.99,WeatherLink 5.7,2013-02-01 14:21:00,
2013-02-01 09:31:00,14.9,6.2,30.18,West,270,13.0,22.0,68,0.00,,,-99.99,WeatherLink 5.7,2013-02-01 14:31:00,
2013-02-01 09:41:00,15.2,5.9,30.18,WNW,292,15.0,22.0,66,0.00,,,-99.99,WeatherLink 5.7,2013-02-01 14:41:00,
2013-02-01 09:51:00,16.1,5.7,30.19,West,270,13.0,23.0,63,0.00,,,-99.99,WeatherLink 5.7,2013-02-01 14:51:00,
2013-02-01 10:01:00,16.9,6.1,30.19,WNW,292,14.0,21.0,62,0.00,,,-99.99,WeatherLink 5.7,2013-02-01 15:01:00,
2013-02-01 10:11:00,17.3,6.1,30.20,West,270,13.0,24.0,61,0.00,,,-99.99,WeatherLink 5.7,2013-02-01 15:11:00,
2013-02-01 10:21:00,17.8,6.2,30.20,West,270,13.0,22.0,60,0.00,,,-99.99,WeatherLink 5.7,2013-02-01 15:21:00,
2013-02-01 10:31:00,18.0,6.4,30.21,West,270,12.0,22.0,60,0.00,,,-99.99,WeatherLink 5.7,2013-02-01 15:31:00,
2013-02-01 10:41:00,18.0,6.4,30.21,West,270,13.0,20.0,60,0.00,,,-99.99,WeatherLink 5.7,2013-02-01 15:41:00,
2013-02-01 10:51:00,18.1,6.5,30.22,WNW,292,12.0,21.0,60,0.00,,,-99.99,WeatherLink 5.7,2013-02-01 15:51:00,
2013-02-01 11:01:00,18.6,6.3,30.22,WNW,292,14.0,24.0,58,0.00,,,-99.99,WeatherLink 5.7,2013-02-01 16:01:00,
2013-02-01 11:11:00,18.1,6.2,30.22,West,270,13.0,21.0,59,0.00,,,-99.99,WeatherLink 5.7,2013-02-01 16:11:00,
2013-02-01 11:21:00,18.6,6.3,30.22,West,270,15.0,22.0,58,0.00,,,-99.99,WeatherLink 5.7,2013-02-01 16:21:00,
2013-02-01 11:31:00,18.8,6.4,30.22,West,270,13.0,21.0,58,0.00,,,-99.99,WeatherLink 5.7,2013-02-01 16:31:00,
2013-02-01 11:41:00,19.1,6.7,30.22,West,270,13.0,25.0,58,0.00,,,-99.99,WeatherLink 5.7,2013-02-01 16:41:00,
2013-02-01 11:51:00,19.3,6.9,30.23,West,270,13.0,22.0,58,0.00,,,-99.99,WeatherLink 5.7,2013-02-01 16:51:00,
2013-02-01 12:01:00,19.6,6.8,30.23,West,270,12.0,20.0,57,0.00,,,-99.99,WeatherLink 5.7,2013-02-01 17:01:00,
2013-02-01 12:11:00,19.4,7.0,30.23,West,270,13.0,22.0,58,0.00,,,-99.99,WeatherLink 5.7,2013-02-01 17:11:00,
2013-02-01 12:21:00,19.6,6.4,30.23,West,270,14.0,23.0,56,0.00,,,-99.99,WeatherLink 5.7,2013-02-01 17:21:00,
2013-02-01 12:31:00,19.9,7.1,30.22,West,270,14.0,25.0,57,0.00,,,-99.99,WeatherLink 5.7,2013-02-01 17:31:00,
2013-02-01 12:41:00,20.2,7.0,30.23,West,270,14.0,22.0,56,0.00,,,-99.99,WeatherLink 5.7,2013-02-01 17:41:00,
2013-02-01 12:51:00,20.2,7.0,30.22,West,270,15.0,23.0,56,0.00,,,-99.99,WeatherLink 5.7,2013-02-01 17:51:00,
2013-02-01 13:01:00,20.2,7.0,30.23,West,270,13.0,22.0,56,0.00,,,-99.99,WeatherLink 5.7,2013-02-01 18:01:00,
2013-02-01 13:11:00,19.1,6.3,30.23,West,270,13.0,23.0,57,0.00,,,-99.99,WeatherLink 5.7,2013-02-01 18:11:00,
2013-02-01 13:21:00,18.7,6.0,30.23,West,270,12.0,20.0,57,0.00,,,-99.99,WeatherLink 5.7,2013-02-01 18:21:00,
2013-02-01 13:31:00,18.6,5.5,30.23,West,270,14.0,22.0,56,0.00,,,-99.99,WeatherLink 5.7,2013-02-01 18:31:00,
2013-02-01 13:41:00,18.3,5.2,30.23,West,270,13.0,21.0,56,0.00,,,-99.99,WeatherLink 5.7,2013-02-01 18:41:00,
2013-02-01 13:51:00,18.3,5.2,30.23,West,270,12.0,22.0,56,0.00,,,-99.99,WeatherLink 5.7,2013-02-01 18:51:00,
2013-02-01 14:01:00,18.7,5.6,30.23,West,270,12.0,19.0,56,0.00,,,-99.99,WeatherLink 5.7,2013-02-01 19:01:00,
2013-02-01 14:11:00,19.0,5.5,30.23,West,270,10.0,18.0,55,0.00,,,-99.99,WeatherLink 5.7,2013-02-01 19:11:00,
2013-02-01 14:21:00,19.3,5.3,30.23,West,270,12.0,21.0,54,0.00,,,-99.99,WeatherLink 5.7,2013-02-01 19:21:00,
2013-02-01 14:31:00,19.2,4.8,30.24,WNW,292,13.0,21.0,53,0.00,,,-99.99,WeatherLink 5.7,2013-02-01 19:31:00,
2013-02-01 14:41:00,18.7,4.0,30.24,WNW,292,13.0,21.0,52,0.00,,,-99.99,WeatherLink 5.7,2013-02-01 19:41:00,
2013-02-01 14:51:00,18.2,3.9,30.24,West,270,13.0,21.0,53,0.00,,,-99.99,WeatherLink 5.7,2013-02-01 19:51:00,
2013-02-01 15:01:00,17.9,3.2,30.25,West,270,12.0,19.0,52,0.00,,,-99.99,WeatherLink 5.7,2013-02-01 20:01:00,
2013-02-01 15:11:00,17.6,3.8,30.24,West,270,10.0,19.0,54,0.00,,,-99.99,WeatherLink 5.7,2013-02-01 20:11:00,
2013-02-01 15:21:00,17.5,3.7,30.25,West,270,11.0,19.0,54,0.00,,,-99.99,WeatherLink 5.7,2013-02-01 20:21:00,
2013-02-01 15:31:00,17.6,2.9,30.25,West,270,10.0,21.0,52,0.00,,,-99.99,WeatherLink 5.7,2013-02-01 20:31:00,
2013-02-01 15:41:00,17.4,2.8,30.25,West,270,12.0,19.0,52,0.00,,,-99.99,WeatherLink 5.7,2013-02-01 20:41:00,
2013-02-01 15:51:00,17.0,2.8,30.25,West,270,11.0,20.0,53,0.00,,,-99.99,WeatherLink 5.7,2013-02-01 20:51:00,
2013-02-01 16:01:00,17.2,3.0,30.25,West,270,11.0,22.0,53,0.00,,,-99.99,WeatherLink 5.7,2013-02-01 21:01:00,
2013-02-01 16:11:00,17.0,3.2,30.25,West,270,11.0,18.0,54,0.00,,,-99.99,WeatherLink 5.7,2013-02-01 21:11:00,
2013-02-01 16:21:00,16.9,3.1,30.25,West,270,9.0,17.0,54,0.00,,,-99.99,WeatherLink 5.7,2013-02-01 21:21:00,
2013-02-01 16:31:00,16.8,3.4,30.25,West,270,9.0,16.0,55,0.00,,,-99.99,WeatherLink 5.7,2013-02-01 21:31:00,
2013-02-01 16:41:00,16.8,3.0,30.25,West,270,10.0,18.0,54,0.00,,,-99.99,WeatherLink 5.7,2013-02-01 21:41:00,
2013-02-01 16:51:00,16.6,2.4,30.25,West,270,9.0,16.0,53,0.00,,,-99.99,WeatherLink 5.7,2013-02-01 21:51:00,
2013-02-01 17:01:00,16.4,2.2,30.26,West,270,12.0,21.0,53,0.00,,,-99.99,WeatherLink 5.7,2013-02-01 22:01:00,
2013-02-01 17:11:00,16.1,1.9,30.25,West,270,11.0,18.0,53,0.00,,,-99.99,WeatherLink 5.7,2013-02-01 22:11:00,
2013-02-01 17:21:00,15.8,2.1,30.26,West,270,9.0,19.0,54,0.00,,,-99.99,WeatherLink 5.7,2013-02-01 22:21:00,
2013-02-01 17:31:00,15.6,1.9,30.26,West,270,9.0,18.0,54,0.00,,,-99.99,WeatherLink 5.7,2013-02-01 22:31:00,
2013-02-01 17:41:00,15.2,1.5,30.26,West,270,10.0,18.0,54,0.00,,,-99.99,WeatherLink 5.7,2013-02-01 22:41:00,
2013-02-01 17:51:00,14.8,1.5,30.26,West,270,10.0,18.0,55,0.00,,,-99.99,WeatherLink 5.7,2013-02-01 22:51:00,
2013-02-01 18:01:00,14.6,1.7,30.27,West,270,11.0,20.0,56,0.00,,,-99.99,WeatherLink 5.7,2013-02-01 23:01:00,
2013-02-01 18:11:00,14.4,1.2,30.27,West,270,10.0,17.0,55,0.00,,,-99.99,WeatherLink 5.7,2013-02-01 23:11:00,
2013-02-01 18:21:00,14.2,1.4,30.27,West,270,11.0,19.0,56,0.00,,,-99.99,WeatherLink 5.7,2013-02-01 23:21:00,
2013-02-01 18:31:00,14.0,1.2,30.27,West,270,12.0,19.0,56,0.00,,,-99.99,WeatherLink 5.7,2013-02-01 23:31:00,
2013-02-01 18:41:00,13.7,1.3,30.27,West,270,12.0,22.0,57,0.00,,,-99.99,WeatherLink 5.7,2013-02-01 23:41:00,
2013-02-01 18:51:00,13.5,1.1,30.28,West,270,10.0,17.0,57,0.00,,,-99.99,WeatherLink 5.7,2013-02-01 23:51:00,
2013-02-01 19:01:00,13.4,1.4,30.28,West,270,11.0,19.0,58,0.00,,,-99.99,WeatherLink 5.7,2013-02-02 00:01:00,
2013-02-01 19:11:00,13.2,0.8,30.28,West,270,10.0,18.0,57,0.00,,,-99.99,WeatherLink 5.7,2013-02-02 00:11:00,
2013-02-01 19:21:00,12.9,0.5,30.28,WSW,247,12.0,21.0,57,0.00,,,-99.99,WeatherLink 5.7,2013-02-02 00:21:00,
2013-02-01 19:31:00,12.7,-0.1,30.28,West,270,12.0,20.0,56,0.00,,,-99.99,WeatherLink 5.7,2013-02-02 00:31:00,
2013-02-01 19:41:00,12.5,0.1,30.28,West,270,9.0,16.0,57,0.00,,,-99.99,WeatherLink 5.7,2013-02-02 00:41:00,
2013-02-01 19:51:00,12.5,0.5,30.29,West,270,10.0,18.0,58,0.00,,,-99.99,WeatherLink 5.7,2013-02-02 00:51:00,
2013-02-01 20:01:00,12.6,0.2,30.29,West,270,10.0,17.0,57,0.00,,,-99.99,WeatherLink 5.7,2013-02-02 01:01:00,
2013-02-01 20:11:00,12.5,-0.2,30.29,West,270,12.0,20.0,56,0.00,,,-99.99,WeatherLink 5.7,2013-02-02 01:11:00,
2013-02-01 20:21:00,12.4,-0.3,30.29,West,270,10.0,19.0,56,0.00,,,-99.99,WeatherLink 5.7,2013-02-02 01:21:00,
2013-02-01 20:31:00,12.3,-0.1,30.29,West,270,11.0,18.0,57,0.00,,,-99.99,WeatherLink 5.7,2013-02-02 01:31:00,
2013-02-01 20:41:00,12.4,0.4,30.29,West,270,8.0,18.0,58,0.00,,,-99.99,WeatherLink 5.7,2013-02-02 01:41:00,
2013-02-01 20:51:00,12.4,0.4,30.28,West,270,9.0,16.0,58,0.00,,,-99.99,WeatherLink 5.7,2013-02-02 01:51:00,
2013-02-01 21:01:00,12.3,0.7,30.28,West,270,9.0,15.0,59,0.00,,,-99.99,WeatherLink 5.7,2013-02-02 02:01:00,
2013-02-01 21:11:00,12.3,0.3,30.28,West,270,10.0,16.0,58,0.00,,,-99.99,WeatherLink 5.7,2013-02-02 02:11:00,
2013-02-01 21:21:00,12.3,0.7,30.28,West,270,7.0,14.0,59,0.00,,,-99.99,WeatherLink 5.7,2013-02-02 02:21:00,
2013-02-01 21:31:00,12.3,0.3,30.28,WSW,247,8.0,15.0,58,0.00,,,-99.99,WeatherLink 5.7,2013-02-02 02:31:00,
2013-02-01 21:41:00,12.3,0.7,30.27,WSW,247,7.0,13.0,59,0.00,,,-99.99,WeatherLink 5.7,2013-02-02 02:41:00,
2013-02-01 21:51:00,12.5,0.9,30.27,WSW,247,8.0,14.0,59,0.00,,,-99.99,WeatherLink 5.7,2013-02-02 02:51:00,
2013-02-01 22:01:00,12.7,1.1,30.27,WSW,247,8.0,12.0,59,0.00,,,-99.99,WeatherLink 5.7,2013-02-02 03:01:00,
2013-02-01 22:11:00,12.9,1.2,30.27,WSW,247,9.0,16.0,59,0.00,,,-99.99,WeatherLink 5.7,2013-02-02 03:11:00,
2013-02-01 22:21:00,13.1,1.4,30.27,SW,225,9.0,16.0,59,0.00,,,-99.99,WeatherLink 5.7,2013-02-02 03:21:00,
2013-02-01 22:31:00,13.2,1.9,30.27,SW,225,9.0,15.0,60,0.00,,,-99.99,WeatherLink 5.7,2013-02-02 03:31:00,
2013-02-01 22:41:00,13.3,2.0,30.27,SW,225,9.0,14.0,60,0.00,,,-99.99,WeatherLink 5.7,2013-02-02 03:41:00,
2013-02-01 22:51:00,13.4,2.1,30.26,SW,225,8.0,14.0,60,0.00,,,-99.99,WeatherLink 5.7,2013-02-02 03:51:00,
2013-02-01 23:01:00,13.4,2.4,30.26,SW,225,8.0,13.0,61,0.00,,,-99.99,WeatherLink 5.7,2013-02-02 04:01:00,
2013-02-01 23:11:00,13.5,2.9,30.26,SW,225,8.0,14.0,62,0.00,,,-99.99,WeatherLink 5.7,2013-02-02 04:11:00,
2013-02-01 23:21:00,13.6,2.6,30.25,SW,225,7.0,14.0,61,0.00,,,-99.99,WeatherLink 5.7,2013-02-02 04:21:00,
2013-02-01 23:31:00,13.7,3.1,30.25,SW,225,9.0,15.0,62,0.00,,,-99.99,WeatherLink 5.7,2013-02-02 04:31:00,
2013-02-01 23:41:00,13.9,3.3,30.25,SW,225,8.0,16.0,62,0.00,,,-99.99,WeatherLink 5.7,2013-02-02 04:41:00,
2013-02-01 23:51:00,14.1,3.5,30.24,SW,225,7.0,12.0,62,0.00,,,-99.99,WeatherLink 5.7,2013-02-02 04:51:00,